TTPP/POS METAR and TAF weather

Enter ICAO airport designator
Station Type Date Time Source
TTPP METAR 2020/06/05 11:00 UTC NOAA

TTPP 051100Z 15003KT 9999 -RA FEW014 23/23 Q1015 NOSIG


Station Type Date Time Source
TTPP Decoded METAR 2020/06/05 11:00 UTC NOAA

Piarco International Airport, Trinidad, Trinidad and Tobago (TTPP) 10-37N 061-21W 15M
Jun 05, 2020 - 07:00 AM EDT / 2020.06.05 1100 UTC
Wind: from the SSE (150 degrees) at 3 MPH (3 KT):0
Visibility: greater than 7 mile(s):0
Sky conditions: mostly clear
Weather: light rain
Temperature: 73 F (23 C)
Dew Point: 73 F (23 C)
Relative Humidity: 100%
Pressure (altimeter): 29.97 in. Hg (1015 hPa)
ob: TTPP 051100Z 15003KT 9999 -RA FEW014 23/23 Q1015 NOSIG
cycle: 11

Station Type Date Time Source
TTPP TAF 2020/06/05 12:19 UTC NOAA

TAF TTPP 051000Z 0512/0612 10012G35KT 9999 SCT018 SCT040
TEMPO 0512/0520 3000 SHRA FEW012CB BKN015 PROB40
TEMPO 0514/0517 VRB15G35KT 0800 +TSRA FEW010CB BKN012
BECMG 0523/0601 09005KT FEW018

Example: see airport list